createdAt,value
2022-09-23T00:01:15.912Z,8.73
2022-09-23T00:03:45.660Z,8.70
2022-09-23T00:06:19.977Z,7.47
2022-09-23T00:08:49.642Z,7.27
2022-09-23T00:11:25.846Z,7.30
2022-09-23T00:13:59.282Z,5.63
2022-09-23T00:16:31.169Z,7.20
2022-09-23T00:18:58.471Z,8.37
2022-09-23T00:21:25.412Z,7.43
2022-09-23T00:23:52.785Z,7.27
2022-09-23T00:26:22.191Z,12.30
2022-09-23T00:28:50.472Z,14.10
2022-09-23T00:31:22.605Z,7.10
2022-09-23T00:33:56.740Z,8.57
2022-09-23T00:36:24.837Z,10.43
2022-09-23T00:38:52.206Z,7.30
2022-09-23T00:41:19.465Z,5.73
2022-09-23T00:43:57.107Z,9.10
2022-09-23T00:46:36.527Z,6.23
2022-09-23T00:49:22.748Z,10.33
2022-09-23T00:51:56.788Z,10.70
2022-09-23T00:54:27.389Z,7.07
2022-09-23T00:56:57.023Z,8.40
2022-09-23T00:59:26.175Z,6.13
2022-09-23T01:01:55.611Z,8.37
2022-09-23T01:04:25.257Z,8.40
2022-09-23T01:06:52.227Z,8.30
2022-09-23T01:09:20.591Z,5.77
2022-09-23T01:12:06.014Z,8.87
2022-09-23T01:14:48.739Z,8.93
2022-09-23T01:17:30.447Z,8.77
2022-09-23T01:20:42.012Z,12.20
2022-09-23T01:23:42.674Z,8.73
2022-09-23T01:26:51.844Z,8.37
2022-09-23T01:29:37.545Z,9.13
2022-09-23T01:32:37.719Z,9.50
2022-09-23T01:35:23.769Z,10.00
2022-09-23T01:38:29.031Z,12.03
2022-09-23T01:41:25.807Z,8.37
2022-09-23T01:44:10.739Z,7.87
2022-09-23T01:47:18.850Z,10.40
2022-09-23T01:50:00.416Z,6.20
2022-09-23T01:52:44.560Z,7.53
2022-09-23T01:55:23.947Z,9.10
2022-09-23T01:58:09.901Z,7.73
2022-09-23T02:00:44.415Z,8.83
2022-09-23T02:03:27.806Z,9.37
2022-09-23T02:06:02.135Z,9.47
2022-09-23T02:08:42.517Z,10.53
2022-09-23T02:11:14.139Z,8.67
2022-09-23T02:14:14.536Z,11.43
2022-09-23T02:16:58.395Z,8.07
2022-09-23T02:19:51.543Z,7.27
2022-09-23T02:23:04.355Z,9.27
2022-09-23T02:25:55.344Z,12.30
2022-09-23T02:28:51.888Z,8.60
2022-09-23T02:31:41.836Z,8.57
2022-09-23T02:34:30.818Z,7.77
2022-09-23T02:37:44.735Z,11.47
2022-09-23T02:40:38.070Z,9.83
2022-09-23T02:43:35.688Z,9.23
2022-09-23T02:46:04.957Z,16.57
2022-09-23T02:48:56.745Z,13.07
2022-09-23T02:51:28.903Z,10.97
2022-09-23T02:53:57.802Z,12.17
2022-09-23T02:56:25.087Z,9.90
2022-09-23T02:58:54.404Z,12.63
2022-09-23T03:01:53.022Z,8.63
2022-09-23T03:04:53.917Z,11.10
2022-09-23T03:07:51.291Z,11.50
2022-09-23T03:10:33.805Z,10.70
2022-09-23T03:13:28.627Z,8.67
2022-09-23T03:16:32.633Z,10.07
2022-09-23T03:19:19.742Z,7.40
2022-09-23T03:22:14.073Z,8.87
2022-09-23T03:24:45.142Z,10.10
2022-09-23T03:27:22.005Z,8.40
2022-09-23T03:29:52.065Z,8.70
2022-09-23T03:32:23.611Z,8.23
2022-09-23T03:34:54.829Z,8.67
2022-09-23T03:37:44.770Z,12.57
2022-09-23T03:40:24.141Z,9.80
2022-09-23T03:42:52.220Z,11.00
2022-09-23T03:45:26.691Z,8.40
2022-09-23T03:47:53.713Z,12.33
2022-09-23T03:50:21.389Z,9.03
2022-09-23T03:52:49.758Z,8.77
2022-09-23T03:55:18.230Z,9.77
2022-09-23T03:57:45.539Z,11.97
2022-09-23T04:00:15.028Z,10.40
2022-09-23T04:02:42.624Z,9.27
2022-09-23T04:05:11.786Z,7.10
2022-09-23T04:07:38.908Z,14.77
2022-09-23T04:10:07.441Z,9.40
2022-09-23T04:12:34.390Z,9.77
2022-09-23T04:15:01.459Z,7.67
2022-09-23T04:17:28.541Z,10.63
2022-09-23T04:19:55.580Z,11.37
2022-09-23T04:22:22.553Z,7.60
2022-09-23T04:24:49.483Z,7.27
2022-09-23T04:27:16.730Z,12.23
2022-09-23T04:29:43.676Z,13.53
2022-09-23T04:32:10.792Z,9.93
2022-09-23T04:34:37.786Z,14.47
2022-09-23T04:37:04.866Z,10.00
2022-09-23T04:39:31.898Z,9.83
2022-09-23T04:41:59.783Z,12.23
2022-09-23T04:44:28.344Z,12.67
2022-09-23T04:46:55.362Z,12.53
2022-09-23T04:49:23.588Z,7.13
2022-09-23T04:51:50.493Z,9.87
2022-09-23T04:54:17.460Z,12.27
2022-09-23T04:56:44.411Z,11.00
2022-09-23T04:59:11.472Z,12.87
2022-09-23T05:01:38.729Z,11.30
2022-09-23T05:04:11.052Z,12.80
2022-09-23T05:06:38.359Z,12.45
2022-09-23T05:09:08.896Z,9.85
2022-09-23T05:11:36.397Z,15.90
2022-09-23T05:14:03.413Z,16.17
2022-09-23T05:16:30.410Z,14.68
2022-09-23T05:18:58.143Z,19.98
2022-09-23T05:21:31.851Z,11.20
2022-09-23T05:24:00.782Z,12.05
2022-09-23T05:26:31.082Z,11.18
2022-09-23T05:28:59.142Z,15.73
2022-09-23T05:31:29.077Z,12.05
2022-09-23T05:33:59.310Z,12.25
2022-09-23T05:36:27.556Z,13.18
2022-09-23T05:38:56.566Z,14.00
2022-09-23T05:41:25.383Z,14.05
2022-09-23T05:43:54.574Z,15.50
2022-09-23T05:46:25.444Z,18.25
2022-09-23T05:48:52.567Z,14.45
2022-09-23T05:51:30.131Z,15.35
2022-09-23T05:53:58.439Z,17.42
2022-09-23T05:56:27.758Z,23.30
2022-09-23T05:58:57.946Z,18.98
2022-09-23T06:01:28.803Z,27.98
2022-09-23T06:03:57.654Z,14.75
2022-09-23T06:06:36.099Z,19.80
2022-09-23T06:09:03.633Z,14.90
2022-09-23T06:11:32.487Z,19.15
2022-09-23T06:14:03.317Z,18.88
2022-09-23T06:16:34.047Z,24.00
2022-09-23T06:19:06.316Z,29.15
2022-09-23T06:21:36.935Z,25.23
2022-09-23T06:24:05.104Z,34.08
2022-09-23T06:26:35.370Z,22.63
2022-09-23T06:29:03.381Z,39.45
2022-09-23T06:31:30.608Z,29.02
2022-09-23T06:34:07.508Z,34.22
2022-09-23T06:36:43.410Z,31.77
2022-09-23T06:39:11.406Z,30.70
2022-09-23T06:41:39.211Z,40.25
2022-09-23T06:44:06.234Z,38.63
2022-09-23T06:46:33.578Z,53.90
2022-09-23T06:49:02.119Z,37.33
2022-09-23T06:51:29.120Z,41.08
2022-09-23T06:53:56.047Z,28.65
2022-09-23T06:56:23.792Z,29.48
2022-09-23T06:58:52.786Z,38.30
2022-09-23T07:01:20.072Z,32.00
2022-09-23T07:03:48.493Z,44.08
2022-09-23T07:06:17.242Z,32.13
2022-09-23T07:08:51.256Z,53.15
2022-09-23T07:11:22.451Z,39.88
2022-09-23T07:13:49.761Z,36.00
2022-09-23T07:16:16.813Z,32.85
2022-09-23T07:18:45.075Z,31.65
2022-09-23T07:21:16.017Z,30.35
2022-09-23T07:23:48.884Z,32.13
2022-09-23T07:26:17.184Z,29.77
2022-09-23T07:28:44.305Z,31.45
2022-09-23T07:31:17.746Z,38.33
2022-09-23T07:33:49.178Z,32.25
2022-09-23T07:36:18.956Z,20.35
2022-09-23T07:38:47.478Z,17.45
2022-09-23T07:41:18.471Z,18.90
2022-09-23T07:43:46.991Z,24.30
2022-09-23T07:46:17.638Z,42.97
2022-09-23T07:48:46.032Z,31.48
2022-09-23T07:51:34.740Z,33.90
2022-09-23T07:54:05.399Z,23.13
2022-09-23T07:56:32.392Z,17.85
2022-09-23T07:59:03.870Z,23.05
2022-09-23T08:01:38.160Z,24.27
2022-09-23T08:04:30.681Z,29.38
2022-09-23T08:07:05.646Z,29.48
2022-09-23T08:09:41.689Z,22.77
2022-09-23T08:12:16.351Z,25.70
2022-09-23T08:14:43.934Z,17.92
2022-09-23T08:17:13.124Z,13.90
2022-09-23T08:19:40.068Z,12.07
2022-09-23T08:22:07.017Z,8.38
2022-09-23T08:24:33.962Z,9.63
2022-09-23T08:27:01.110Z,10.95
2022-09-23T08:29:28.067Z,12.30
2022-09-23T08:31:55.568Z,9.25
2022-09-23T08:34:23.745Z,6.50
2022-09-23T08:36:52.431Z,9.57
2022-09-23T08:39:20.952Z,5.82
2022-09-23T08:41:59.052Z,6.20
2022-09-23T08:44:45.333Z,7.80
2022-09-23T08:47:20.951Z,10.23
2022-09-23T08:50:08.758Z,5.28
2022-09-23T08:52:55.030Z,8.55
2022-09-23T08:55:34.492Z,3.05
2022-09-23T08:58:51.245Z,5.88
2022-09-23T09:01:52.060Z,3.67
2022-09-23T09:04:43.141Z,1.90
2022-09-23T09:10:21.331Z,2.05
2022-09-23T09:13:00.322Z,2.85
2022-09-23T09:15:28.571Z,2.60
2022-09-23T09:18:05.311Z,4.22
2022-09-23T09:20:57.797Z,1.88
2022-09-23T09:23:52.034Z,4.13
2022-09-23T09:26:28.814Z,8.50
2022-09-23T09:29:23.820Z,3.00
2022-09-23T09:31:57.803Z,1.33
2022-09-23T09:34:38.255Z,1.40
2022-09-23T09:37:19.054Z,1.40
2022-09-23T09:39:46.115Z,4.18
2022-09-23T09:42:26.101Z,0.75
2022-09-23T09:45:02.212Z,2.90
2022-09-23T09:47:38.936Z,4.63
2022-09-23T09:50:10.624Z,5.70
2022-09-23T09:52:43.737Z,8.27
2022-09-23T09:55:13.548Z,1.77
2022-09-23T09:57:53.692Z,4.57
2022-09-23T10:00:26.766Z,2.83
2022-09-23T10:03:01.805Z,1.25
2022-09-23T10:05:34.918Z,2.03
2022-09-23T10:08:33.499Z,2.53
2022-09-23T10:11:07.968Z,2.58
2022-09-23T10:13:36.260Z,3.90
2022-09-23T10:16:04.277Z,3.05
2022-09-23T10:18:39.356Z,5.05
2022-09-23T10:21:14.458Z,2.45
2022-09-23T10:23:48.813Z,1.45
2022-09-23T10:26:19.075Z,1.75
2022-09-23T10:28:52.347Z,1.42
2022-09-23T10:31:34.571Z,3.20
2022-09-23T10:34:20.773Z,6.78
2022-09-23T10:37:13.767Z,1.67
2022-09-23T10:39:59.516Z,3.58
2022-09-23T10:43:20.168Z,4.53
2022-09-23T10:46:08.578Z,4.97
2022-09-23T10:48:59.845Z,4.70
2022-09-23T10:51:45.009Z,2.17
2022-09-23T10:54:46.257Z,3.30
2022-09-23T10:57:46.548Z,5.90
2022-09-23T11:00:46.960Z,3.60
2022-09-23T11:03:19.640Z,5.03
2022-09-23T11:05:48.722Z,1.63
2022-09-23T11:08:33.928Z,3.40
2022-09-23T11:11:55.603Z,1.75
2022-09-23T11:14:51.551Z,0.80
2022-09-23T11:18:07.155Z,1.92
2022-09-23T11:20:39.180Z,1.38
2022-09-23T11:23:43.335Z,1.30
2022-09-23T11:26:23.589Z,1.00
2022-09-23T11:29:22.552Z,1.65
2022-09-23T11:32:34.442Z,1.98
2022-09-23T11:35:48.562Z,1.67
2022-09-23T11:38:26.255Z,1.92
2022-09-23T11:41:01.678Z,1.42
2022-09-23T11:43:35.607Z,2.58
2022-09-23T11:46:17.777Z,1.60
2022-09-23T11:48:56.702Z,3.22
2022-09-23T11:51:39.029Z,1.65
2022-09-23T11:54:23.129Z,1.38
2022-09-23T11:57:04.824Z,1.25
2022-09-23T11:59:57.453Z,4.05
2022-09-23T12:03:00.082Z,2.28
2022-09-23T12:05:45.369Z,2.90
2022-09-23T12:08:25.549Z,1.45
2022-09-23T12:11:06.643Z,1.60
2022-09-23T12:14:11.607Z,5.32
2022-09-23T12:16:55.176Z,2.45
2022-09-23T12:20:16.109Z,4.50
2022-09-23T12:23:03.398Z,2.25
2022-09-23T12:25:57.935Z,1.70
2022-09-23T12:28:29.255Z,2.38
2022-09-23T12:31:00.516Z,2.58
2022-09-23T12:33:31.216Z,1.20
2022-09-23T12:36:08.029Z,2.05
2022-09-23T12:38:49.969Z,2.38
2022-09-23T12:41:36.576Z,5.60
2022-09-23T12:44:15.068Z,2.35
2022-09-23T12:46:44.736Z,2.78
2022-09-23T12:49:37.719Z,0.85
2022-09-23T12:52:16.765Z,2.25
2022-09-23T12:54:51.658Z,5.75
2022-09-23T12:57:33.606Z,0.73
2022-09-23T13:00:29.863Z,2.35
2022-09-23T13:03:19.141Z,1.33
2022-09-23T13:06:11.681Z,0.95
2022-09-23T13:08:42.492Z,7.03
2022-09-23T13:11:35.193Z,6.43
2022-09-23T13:14:05.291Z,2.70
2022-09-23T13:16:38.185Z,3.65
2022-09-23T13:19:26.626Z,9.43
2022-09-23T13:22:11.128Z,7.05
2022-09-23T13:25:00.282Z,9.20
2022-09-23T13:27:35.573Z,8.32
2022-09-23T13:30:21.234Z,6.18
2022-09-23T13:33:00.805Z,4.07
2022-09-23T13:35:52.911Z,1.88
2022-09-23T13:38:29.780Z,5.07
2022-09-23T13:41:23.118Z,2.83
2022-09-23T13:43:55.976Z,1.73
2022-09-23T13:46:31.407Z,2.65
2022-09-23T13:48:58.693Z,2.60
2022-09-23T13:51:36.380Z,1.13
2022-09-23T13:54:05.206Z,2.10
2022-09-23T13:56:35.379Z,1.63
2022-09-23T13:59:28.360Z,2.55
2022-09-23T14:02:16.971Z,4.68
2022-09-23T14:04:44.591Z,3.50
2022-09-23T14:07:15.576Z,2.90
2022-09-23T14:09:48.524Z,3.25
2022-09-23T14:12:22.020Z,2.00
2022-09-23T14:14:51.844Z,4.80
2022-09-23T14:17:23.022Z,4.60
2022-09-23T14:19:51.341Z,3.10
2022-09-23T14:22:29.881Z,4.35
2022-09-23T14:24:58.525Z,1.30
2022-09-23T14:27:32.144Z,2.50
2022-09-23T14:30:02.225Z,1.70
2022-09-23T14:32:30.287Z,2.60
2022-09-23T14:34:59.880Z,4.13
2022-09-23T14:38:07.270Z,3.42
2022-09-23T14:40:36.915Z,1.50
2022-09-23T14:43:30.122Z,1.83
2022-09-23T14:45:58.987Z,1.77
2022-09-23T14:48:33.816Z,7.72
2022-09-23T14:51:13.261Z,2.28
2022-09-23T14:53:49.048Z,3.60
2022-09-23T14:56:22.797Z,5.30
2022-09-23T14:59:00.100Z,3.50
2022-09-23T15:01:36.613Z,3.40
2022-09-23T15:04:21.705Z,2.28
2022-09-23T15:07:00.628Z,5.75
2022-09-23T15:09:39.357Z,3.85
2022-09-23T15:12:16.002Z,1.42
2022-09-23T15:14:54.099Z,4.47
2022-09-23T15:17:23.995Z,3.42
2022-09-23T15:19:58.269Z,3.00
2022-09-23T15:22:25.810Z,4.07
2022-09-23T15:24:55.048Z,4.03
2022-09-23T15:27:31.701Z,6.03
2022-09-23T15:30:17.194Z,8.25
2022-09-23T15:32:46.689Z,5.68
2022-09-23T15:35:17.467Z,5.90
2022-09-23T15:37:46.934Z,5.07
2022-09-23T15:40:32.880Z,4.32
2022-09-23T15:43:11.233Z,2.17
2022-09-23T15:45:44.732Z,5.15
2022-09-23T15:48:16.742Z,8.98
2022-09-23T15:50:47.453Z,3.88
2022-09-23T15:53:23.362Z,1.60
2022-09-23T15:55:51.747Z,1.77
2022-09-23T15:58:20.587Z,5.15
2022-09-23T16:00:56.861Z,3.08
2022-09-23T16:03:28.595Z,2.97
2022-09-23T16:06:00.684Z,2.22
2022-09-23T16:08:29.442Z,4.35
2022-09-23T16:10:56.787Z,2.60
2022-09-23T16:13:23.775Z,10.93
2022-09-23T16:15:50.733Z,3.65
2022-09-23T16:18:18.054Z,4.82
2022-09-23T16:20:47.375Z,6.20
2022-09-23T16:23:35.895Z,10.63
2022-09-23T16:26:15.721Z,8.40
2022-09-23T16:28:46.575Z,10.35
2022-09-23T16:31:17.658Z,12.50
2022-09-23T16:33:46.566Z,6.90
2022-09-23T16:36:27.068Z,9.00
2022-09-23T16:38:55.703Z,6.22
2022-09-23T16:41:24.773Z,9.68
2022-09-23T16:43:53.015Z,8.65
2022-09-23T16:46:21.035Z,4.65
2022-09-23T16:48:52.607Z,13.77
2022-09-23T16:51:27.117Z,8.38
2022-09-23T16:53:56.077Z,10.13
2022-09-23T16:56:28.841Z,9.00
2022-09-23T16:58:56.539Z,6.13
2022-09-23T17:01:45.354Z,4.93
2022-09-23T17:04:13.612Z,8.40
2022-09-23T17:06:45.036Z,11.35
2022-09-23T17:09:12.352Z,10.43
2022-09-23T17:11:39.769Z,13.32
2022-09-23T17:14:06.670Z,7.65
2022-09-23T17:16:34.822Z,6.47
2022-09-23T17:19:08.228Z,11.82
2022-09-23T17:21:35.687Z,14.35
2022-09-23T17:24:03.292Z,14.05
2022-09-23T17:26:30.605Z,14.27
2022-09-23T17:28:59.743Z,13.63
2022-09-23T17:31:26.871Z,18.33
2022-09-23T17:33:54.238Z,16.23
2022-09-23T17:36:21.647Z,18.98
2022-09-23T17:38:53.721Z,22.75
2022-09-23T17:41:21.486Z,16.42
2022-09-23T17:43:55.024Z,14.15
2022-09-23T17:46:22.188Z,16.52
2022-09-23T17:48:49.131Z,17.42
2022-09-23T17:51:21.654Z,17.45
2022-09-23T17:53:49.752Z,14.35
2022-09-23T17:56:29.855Z,14.65
2022-09-23T17:59:04.518Z,27.67
2022-09-23T18:01:31.950Z,17.80
2022-09-23T18:04:02.129Z,15.00
2022-09-23T18:06:31.847Z,15.65
2022-09-23T18:09:06.737Z,18.50
2022-09-23T18:11:37.574Z,19.35
2022-09-23T18:14:15.511Z,14.93
2022-09-23T18:16:45.743Z,19.92
2022-09-23T18:19:16.014Z,20.70
2022-09-23T18:21:50.500Z,16.65
2022-09-23T18:24:34.781Z,10.75
2022-09-23T18:27:02.245Z,11.77
2022-09-23T18:29:29.682Z,7.47
2022-09-23T18:31:56.858Z,10.98
2022-09-23T18:34:24.321Z,8.45
2022-09-23T18:36:51.570Z,9.75
2022-09-23T18:39:18.545Z,8.80
2022-09-23T18:41:45.533Z,9.30
2022-09-23T18:44:12.587Z,10.90
2022-09-23T18:46:39.729Z,11.38
2022-09-23T18:49:25.392Z,7.68
2022-09-23T18:51:55.652Z,8.73
2022-09-23T18:54:25.462Z,11.85
2022-09-23T18:56:55.568Z,10.20
2022-09-23T18:59:25.426Z,8.73
2022-09-23T19:01:55.539Z,8.18
2022-09-23T19:04:25.512Z,11.55
2022-09-23T19:06:53.979Z,7.28
2022-09-23T19:09:21.035Z,14.32
2022-09-23T19:11:52.398Z,7.05
2022-09-23T19:14:20.051Z,8.90
2022-09-23T19:16:49.030Z,17.85
2022-09-23T19:19:16.102Z,16.15
2022-09-23T19:21:43.517Z,12.05
2022-09-23T19:24:16.190Z,11.05
2022-09-23T19:26:44.307Z,12.23
2022-09-23T19:29:19.586Z,11.77
2022-09-23T19:31:46.781Z,10.05
2022-09-23T19:34:20.009Z,10.13
2022-09-23T19:36:47.742Z,8.35
2022-09-23T19:39:30.619Z,15.02
2022-09-23T19:41:59.001Z,9.05
2022-09-23T19:44:26.971Z,9.02
2022-09-23T19:46:56.774Z,11.13
2022-09-23T19:49:25.080Z,12.10
2022-09-23T19:51:56.222Z,12.57
2022-09-23T19:54:27.488Z,11.98
2022-09-23T19:56:55.152Z,8.23
2022-09-23T19:59:22.144Z,10.43
2022-09-23T20:01:49.562Z,9.45
2022-09-23T20:04:17.093Z,8.38
2022-09-23T20:06:44.068Z,10.63
2022-09-23T20:09:11.509Z,7.45
2022-09-23T20:11:38.864Z,6.68
2022-09-23T20:14:06.550Z,8.32
2022-09-23T20:16:36.968Z,9.07
2022-09-23T20:19:05.676Z,5.45
2022-09-23T20:21:33.744Z,8.13
2022-09-23T20:24:01.436Z,4.93
2022-09-23T20:26:47.424Z,5.38
2022-09-23T20:29:14.543Z,4.55
2022-09-23T20:31:41.737Z,4.85
2022-09-23T20:34:10.610Z,10.65
2022-09-23T20:36:40.018Z,9.65
2022-09-23T20:39:07.499Z,6.72
2022-09-23T20:41:38.012Z,12.40
2022-09-23T20:44:14.080Z,8.85
2022-09-23T20:46:48.098Z,9.27
2022-09-23T20:49:17.361Z,10.57
2022-09-23T20:51:44.605Z,8.60
2022-09-23T20:54:12.310Z,10.23
2022-09-23T20:56:39.443Z,7.55
2022-09-23T20:59:06.718Z,9.00
2022-09-23T21:01:35.300Z,10.10
2022-09-23T21:04:08.010Z,12.02
2022-09-23T21:06:37.474Z,7.15
2022-09-23T21:09:05.623Z,7.13
2022-09-23T21:11:32.634Z,13.15
2022-09-23T21:14:01.126Z,8.40
2022-09-23T21:16:28.782Z,8.13
2022-09-23T21:18:56.053Z,10.15
2022-09-23T21:21:23.045Z,6.72
2022-09-23T21:23:50.867Z,10.05
2022-09-23T21:26:23.877Z,7.33
2022-09-23T21:28:53.719Z,9.27
2022-09-23T21:31:25.783Z,15.13
2022-09-23T21:34:01.580Z,10.67
2022-09-23T21:36:34.659Z,14.48
2022-09-23T21:39:04.579Z,7.83
2022-09-23T21:41:32.501Z,12.40
2022-09-23T21:44:00.382Z,12.27
2022-09-23T21:46:28.327Z,11.10
2022-09-23T21:48:58.225Z,11.52
2022-09-23T21:51:36.582Z,9.25
2022-09-23T21:54:03.850Z,6.43
2022-09-23T21:56:37.850Z,8.60
2022-09-23T21:59:05.819Z,9.93
2022-09-23T22:01:38.275Z,9.97
2022-09-23T22:04:18.626Z,7.55
2022-09-23T22:06:46.786Z,16.13
2022-09-23T22:09:20.418Z,11.53
2022-09-23T22:12:09.675Z,12.30
2022-09-23T22:14:36.912Z,14.67
2022-09-23T22:17:05.847Z,17.40
2022-09-23T22:19:40.336Z,14.33
2022-09-23T22:22:13.330Z,18.08
2022-09-23T22:24:45.109Z,11.40
2022-09-23T22:27:16.000Z,15.27
2022-09-23T22:30:02.469Z,15.43
2022-09-23T22:32:41.911Z,16.47
2022-09-23T22:35:17.690Z,17.05
2022-09-23T22:37:45.326Z,13.63
2022-09-23T22:40:14.863Z,21.00
2022-09-23T22:42:43.121Z,16.37
2022-09-23T22:45:11.861Z,15.30
2022-09-23T22:47:41.019Z,16.10
2022-09-23T22:50:09.480Z,17.87
2022-09-23T22:52:37.915Z,17.40
2022-09-23T22:55:08.090Z,14.60
2022-09-23T22:57:35.333Z,16.00
2022-09-23T23:00:05.568Z,18.30
2022-09-23T23:02:33.100Z,17.50
2022-09-23T23:05:00.497Z,18.37
2022-09-23T23:07:27.555Z,20.33
2022-09-23T23:09:54.546Z,15.20
2022-09-23T23:12:21.736Z,17.60
2022-09-23T23:14:49.543Z,16.20
2022-09-23T23:17:17.324Z,17.97
2022-09-23T23:19:44.559Z,14.67
2022-09-23T23:22:11.604Z,13.97
2022-09-23T23:24:38.624Z,15.80
2022-09-23T23:27:05.583Z,16.20
2022-09-23T23:29:32.545Z,14.70
2022-09-23T23:31:59.621Z,21.60
2022-09-23T23:34:26.592Z,21.37
2022-09-23T23:36:55.098Z,15.77
2022-09-23T23:39:24.163Z,14.93
2022-09-23T23:41:56.765Z,16.63
2022-09-23T23:44:25.458Z,18.67
2022-09-23T23:46:55.664Z,16.83
2022-09-23T23:49:22.924Z,16.27
2022-09-23T23:51:50.042Z,16.77
2022-09-23T23:54:17.053Z,18.37
2022-09-23T23:56:44.088Z,18.43
2022-09-23T23:59:11.432Z,13.43
